sensor_id;sensor_type;location;lat;lon;timestamp;P1;durP1;ratioP1;P2;durP2;ratioP2
59054;SDS011;44845;51.444;7.460;2023-03-11T00:01:12;3.13;;;1.20;;
59054;SDS011;44845;51.444;7.460;2023-03-11T00:03:38;1.13;;;1.02;;
59054;SDS011;44845;51.444;7.460;2023-03-11T00:06:03;2.45;;;1.20;;
59054;SDS011;44845;51.444;7.460;2023-03-11T00:08:29;3.17;;;1.27;;
59054;SDS011;44845;51.444;7.460;2023-03-11T00:10:55;2.50;;;1.70;;
59054;SDS011;44845;51.444;7.460;2023-03-11T00:13:24;1.77;;;1.38;;
59054;SDS011;44845;51.444;7.460;2023-03-11T00:15:52;2.00;;;1.70;;
59054;SDS011;44845;51.444;7.460;2023-03-11T00:18:20;2.55;;;1.52;;
59054;SDS011;44845;51.444;7.460;2023-03-11T00:20:49;2.95;;;1.75;;
59054;SDS011;44845;51.444;7.460;2023-03-11T00:23:15;2.42;;;1.90;;
59054;SDS011;44845;51.444;7.460;2023-03-11T00:25:41;1.98;;;1.70;;
59054;SDS011;44845;51.444;7.460;2023-03-11T00:28:08;2.08;;;1.58;;
59054;SDS011;44845;51.444;7.460;2023-03-11T00:30:37;2.13;;;1.90;;
59054;SDS011;44845;51.444;7.460;2023-03-11T00:33:04;2.63;;;1.48;;
59054;SDS011;44845;51.444;7.460;2023-03-11T00:35:30;1.25;;;1.15;;
59054;SDS011;44845;51.444;7.460;2023-03-11T00:37:58;1.60;;;1.50;;
59054;SDS011;44845;51.444;7.460;2023-03-11T00:40:26;1.48;;;1.38;;
59054;SDS011;44845;51.444;7.460;2023-03-11T00:42:53;1.65;;;1.40;;
59054;SDS011;44845;51.444;7.460;2023-03-11T00:45:19;1.88;;;1.13;;
59054;SDS011;44845;51.444;7.460;2023-03-11T00:47:45;1.70;;;1.42;;
59054;SDS011;44845;51.444;7.460;2023-03-11T00:50:13;6.72;;;1.50;;
59054;SDS011;44845;51.444;7.460;2023-03-11T00:52:44;2.55;;;1.10;;
59054;SDS011;44845;51.444;7.460;2023-03-11T00:55:10;1.65;;;1.20;;
59054;SDS011;44845;51.444;7.460;2023-03-11T00:57:39;1.55;;;1.45;;
59054;SDS011;44845;51.444;7.460;2023-03-11T01:00:04;2.15;;;1.52;;
59054;SDS011;44845;51.444;7.460;2023-03-11T01:02:35;1.23;;;1.13;;
59054;SDS011;44845;51.444;7.460;2023-03-11T01:05:01;1.70;;;1.42;;
59054;SDS011;44845;51.444;7.460;2023-03-11T01:07:26;1.48;;;1.38;;
59054;SDS011;44845;51.444;7.460;2023-03-11T01:09:51;3.33;;;1.30;;
59054;SDS011;44845;51.444;7.460;2023-03-11T01:12:17;1.27;;;1.15;;
59054;SDS011;44845;51.444;7.460;2023-03-11T01:14:42;2.53;;;1.40;;
59054;SDS011;44845;51.444;7.460;2023-03-11T01:17:08;6.28;;;1.50;;
59054;SDS011;44845;51.444;7.460;2023-03-11T01:19:34;2.85;;;1.50;;
59054;SDS011;44845;51.444;7.460;2023-03-11T01:21:59;3.95;;;1.48;;
59054;SDS011;44845;51.444;7.460;2023-03-11T01:24:24;4.00;;;1.27;;
59054;SDS011;44845;51.444;7.460;2023-03-11T01:26:50;2.10;;;1.30;;
59054;SDS011;44845;51.444;7.460;2023-03-11T01:29:15;4.35;;;1.20;;
59054;SDS011;44845;51.444;7.460;2023-03-11T01:31:40;1.30;;;0.95;;
59054;SDS011;44845;51.444;7.460;2023-03-11T01:34:06;2.05;;;1.20;;
59054;SDS011;44845;51.444;7.460;2023-03-11T01:36:31;1.67;;;1.10;;
59054;SDS011;44845;51.444;7.460;2023-03-11T01:38:56;1.67;;;1.13;;
59054;SDS011;44845;51.444;7.460;2023-03-11T01:41:22;2.33;;;1.25;;
59054;SDS011;44845;51.444;7.460;2023-03-11T01:43:48;1.25;;;1.10;;
59054;SDS011;44845;51.444;7.460;2023-03-11T01:49:08;5.20;;;1.30;;
59054;SDS011;44845;51.444;7.460;2023-03-11T01:51:43;1.90;;;1.40;;
59054;SDS011;44845;51.444;7.460;2023-03-11T01:54:18;2.58;;;1.30;;
59054;SDS011;44845;51.444;7.460;2023-03-11T01:56:47;2.25;;;1.42;;
59054;SDS011;44845;51.444;7.460;2023-03-11T01:59:15;2.47;;;1.90;;
59054;SDS011;44845;51.444;7.460;2023-03-11T02:02:27;3.70;;;1.90;;
59054;SDS011;44845;51.444;7.460;2023-03-11T02:04:40;4.65;;;2.25;;
59054;SDS011;44845;51.444;7.460;2023-03-11T02:07:06;2.17;;;1.67;;
59054;SDS011;44845;51.444;7.460;2023-03-11T02:09:33;4.22;;;2.30;;
59054;SDS011;44845;51.444;7.460;2023-03-11T02:11:58;2.00;;;1.80;;
59054;SDS011;44845;51.444;7.460;2023-03-11T02:14:24;5.20;;;2.28;;
59054;SDS011;44845;51.444;7.460;2023-03-11T02:16:53;3.55;;;2.40;;
59054;SDS011;44845;51.444;7.460;2023-03-11T02:22:26;3.08;;;2.10;;
59054;SDS011;44845;51.444;7.460;2023-03-11T02:27:23;4.53;;;1.33;;
59054;SDS011;44845;51.444;7.460;2023-03-11T02:29:51;3.20;;;1.50;;
59054;SDS011;44845;51.444;7.460;2023-03-11T02:32:18;5.07;;;2.55;;
59054;SDS011;44845;51.444;7.460;2023-03-11T02:34:44;2.75;;;1.10;;
59054;SDS011;44845;51.444;7.460;2023-03-11T02:37:10;2.85;;;1.30;;
59054;SDS011;44845;51.444;7.460;2023-03-11T02:39:39;4.38;;;1.50;;
59054;SDS011;44845;51.444;7.460;2023-03-11T02:42:16;1.38;;;1.10;;
59054;SDS011;44845;51.444;7.460;2023-03-11T02:44:52;4.55;;;1.50;;
59054;SDS011;44845;51.444;7.460;2023-03-11T02:47:23;2.40;;;1.40;;
59054;SDS011;44845;51.444;7.460;2023-03-11T02:49:49;2.30;;;1.13;;
59054;SDS011;44845;51.444;7.460;2023-03-11T02:52:15;3.60;;;1.25;;
59054;SDS011;44845;51.444;7.460;2023-03-11T02:54:41;4.38;;;1.17;;
59054;SDS011;44845;51.444;7.460;2023-03-11T02:57:06;3.63;;;1.27;;
59054;SDS011;44845;51.444;7.460;2023-03-11T02:59:32;4.35;;;1.40;;
59054;SDS011;44845;51.444;7.460;2023-03-11T03:01:57;7.10;;;1.70;;
59054;SDS011;44845;51.444;7.460;2023-03-11T03:04:23;2.42;;;1.40;;
59054;SDS011;44845;51.444;7.460;2023-03-11T03:06:48;3.08;;;1.52;;
59054;SDS011;44845;51.444;7.460;2023-03-11T03:09:14;5.55;;;1.65;;
59054;SDS011;44845;51.444;7.460;2023-03-11T03:11:39;2.38;;;1.48;;
59054;SDS011;44845;51.444;7.460;2023-03-11T03:14:04;4.72;;;1.27;;
59054;SDS011;44845;51.444;7.460;2023-03-11T03:16:30;2.05;;;1.42;;
59054;SDS011;44845;51.444;7.460;2023-03-11T03:18:55;3.58;;;1.48;;
59054;SDS011;44845;51.444;7.460;2023-03-11T03:21:20;3.38;;;1.23;;
59054;SDS011;44845;51.444;7.460;2023-03-11T03:23:46;12.32;;;1.73;;
59054;SDS011;44845;51.444;7.460;2023-03-11T03:26:11;5.22;;;1.80;;
59054;SDS011;44845;51.444;7.460;2023-03-11T03:28:37;5.22;;;1.50;;
59054;SDS011;44845;51.444;7.460;2023-03-11T03:31:04;3.72;;;1.40;;
59054;SDS011;44845;51.444;7.460;2023-03-11T03:33:30;7.32;;;1.90;;
59054;SDS011;44845;51.444;7.460;2023-03-11T03:35:56;3.75;;;1.23;;
59054;SDS011;44845;51.444;7.460;2023-03-11T03:38:21;3.65;;;1.50;;
59054;SDS011;44845;51.444;7.460;2023-03-11T03:40:47;5.35;;;1.73;;
59054;SDS011;44845;51.444;7.460;2023-03-11T03:43:12;4.63;;;1.30;;
59054;SDS011;44845;51.444;7.460;2023-03-11T03:45:37;8.70;;;2.08;;
59054;SDS011;44845;51.444;7.460;2023-03-11T03:48:03;8.18;;;2.10;;
59054;SDS011;44845;51.444;7.460;2023-03-11T03:50:29;5.20;;;1.30;;
59054;SDS011;44845;51.444;7.460;2023-03-11T03:52:55;6.68;;;1.60;;
59054;SDS011;44845;51.444;7.460;2023-03-11T03:55:20;6.80;;;2.00;;
59054;SDS011;44845;51.444;7.460;2023-03-11T03:57:45;6.13;;;2.13;;
59054;SDS011;44845;51.444;7.460;2023-03-11T04:00:11;9.32;;;2.03;;
59054;SDS011;44845;51.444;7.460;2023-03-11T04:02:37;6.30;;;1.85;;
59054;SDS011;44845;51.444;7.460;2023-03-11T04:05:02;5.40;;;1.88;;
59054;SDS011;44845;51.444;7.460;2023-03-11T04:07:28;4.13;;;1.48;;
59054;SDS011;44845;51.444;7.460;2023-03-11T04:09:53;2.50;;;1.27;;
59054;SDS011;44845;51.444;7.460;2023-03-11T04:12:18;6.15;;;2.10;;
59054;SDS011;44845;51.444;7.460;2023-03-11T04:14:44;3.22;;;1.50;;
59054;SDS011;44845;51.444;7.460;2023-03-11T04:17:10;6.43;;;1.83;;
59054;SDS011;44845;51.444;7.460;2023-03-11T04:19:36;5.80;;;1.80;;
59054;SDS011;44845;51.444;7.460;2023-03-11T04:22:02;4.65;;;1.70;;
59054;SDS011;44845;51.444;7.460;2023-03-11T04:24:27;7.78;;;1.92;;
59054;SDS011;44845;51.444;7.460;2023-03-11T04:26:53;3.72;;;1.48;;
59054;SDS011;44845;51.444;7.460;2023-03-11T04:29:18;6.30;;;1.33;;
59054;SDS011;44845;51.444;7.460;2023-03-11T04:31:43;4.22;;;1.50;;
59054;SDS011;44845;51.444;7.460;2023-03-11T04:34:09;4.90;;;1.50;;
59054;SDS011;44845;51.444;7.460;2023-03-11T04:36:34;5.97;;;1.33;;
59054;SDS011;44845;51.444;7.460;2023-03-11T04:38:59;9.25;;;1.58;;
59054;SDS011;44845;51.444;7.460;2023-03-11T04:41:25;5.13;;;1.67;;
59054;SDS011;44845;51.444;7.460;2023-03-11T04:43:50;6.22;;;1.60;;
59054;SDS011;44845;51.444;7.460;2023-03-11T04:46:15;4.90;;;1.83;;
59054;SDS011;44845;51.444;7.460;2023-03-11T04:48:41;7.72;;;1.63;;
59054;SDS011;44845;51.444;7.460;2023-03-11T04:51:06;4.65;;;1.58;;
59054;SDS011;44845;51.444;7.460;2023-03-11T04:53:32;9.98;;;1.60;;
59054;SDS011;44845;51.444;7.460;2023-03-11T04:55:58;4.72;;;1.67;;
59054;SDS011;44845;51.444;7.460;2023-03-11T04:58:23;4.45;;;1.48;;
59054;SDS011;44845;51.444;7.460;2023-03-11T05:00:48;4.78;;;1.42;;
59054;SDS011;44845;51.444;7.460;2023-03-11T05:03:14;9.23;;;2.08;;
59054;SDS011;44845;51.444;7.460;2023-03-11T05:05:39;3.33;;;1.63;;
59054;SDS011;44845;51.444;7.460;2023-03-11T05:08:05;6.30;;;1.55;;
59054;SDS011;44845;51.444;7.460;2023-03-11T05:10:30;4.60;;;1.58;;
59054;SDS011;44845;51.444;7.460;2023-03-11T05:12:56;6.25;;;1.73;;
59054;SDS011;44845;51.444;7.460;2023-03-11T05:15:21;4.30;;;1.58;;
59054;SDS011;44845;51.444;7.460;2023-03-11T05:17:46;7.65;;;1.65;;
59054;SDS011;44845;51.444;7.460;2023-03-11T05:20:12;5.60;;;1.75;;
59054;SDS011;44845;51.444;7.460;2023-03-11T05:22:38;3.55;;;1.17;;
59054;SDS011;44845;51.444;7.460;2023-03-11T05:25:04;5.43;;;1.75;;
59054;SDS011;44845;51.444;7.460;2023-03-11T05:27:30;12.20;;;2.47;;
59054;SDS011;44845;51.444;7.460;2023-03-11T05:29:55;6.47;;;1.35;;
59054;SDS011;44845;51.444;7.460;2023-03-11T05:32:21;3.85;;;1.45;;
59054;SDS011;44845;51.444;7.460;2023-03-11T05:34:46;4.80;;;2.00;;
59054;SDS011;44845;51.444;7.460;2023-03-11T05:37:12;6.28;;;1.90;;
59054;SDS011;44845;51.444;7.460;2023-03-11T05:39:38;6.50;;;2.00;;
59054;SDS011;44845;51.444;7.460;2023-03-11T05:42:03;3.72;;;1.90;;
59054;SDS011;44845;51.444;7.460;2023-03-11T05:44:30;6.60;;;1.45;;
59054;SDS011;44845;51.444;7.460;2023-03-11T05:46:56;8.57;;;1.85;;
59054;SDS011;44845;51.444;7.460;2023-03-11T05:49:21;5.97;;;1.52;;
59054;SDS011;44845;51.444;7.460;2023-03-11T05:51:47;5.95;;;1.77;;
59054;SDS011;44845;51.444;7.460;2023-03-11T05:54:13;4.70;;;1.50;;
59054;SDS011;44845;51.444;7.460;2023-03-11T05:56:39;6.57;;;1.92;;
59054;SDS011;44845;51.444;7.460;2023-03-11T05:59:05;8.48;;;2.10;;
59054;SDS011;44845;51.444;7.460;2023-03-11T06:01:30;5.68;;;1.40;;
59054;SDS011;44845;51.444;7.460;2023-03-11T06:03:56;4.70;;;1.40;;
59054;SDS011;44845;51.444;7.460;2023-03-11T06:06:21;9.75;;;1.50;;
59054;SDS011;44845;51.444;7.460;2023-03-11T06:08:47;7.15;;;1.58;;
59054;SDS011;44845;51.444;7.460;2023-03-11T06:11:14;4.20;;;1.40;;
59054;SDS011;44845;51.444;7.460;2023-03-11T06:13:40;6.38;;;1.52;;
59054;SDS011;44845;51.444;7.460;2023-03-11T06:16:05;4.72;;;1.33;;
59054;SDS011;44845;51.444;7.460;2023-03-11T06:18:31;8.82;;;1.90;;
59054;SDS011;44845;51.444;7.460;2023-03-11T06:20:57;4.78;;;1.60;;
59054;SDS011;44845;51.444;7.460;2023-03-11T06:23:23;6.60;;;1.58;;
59054;SDS011;44845;51.444;7.460;2023-03-11T06:28:25;3.53;;;1.23;;
59054;SDS011;44845;51.444;7.460;2023-03-11T06:30:50;3.10;;;1.23;;
59054;SDS011;44845;51.444;7.460;2023-03-11T06:33:16;6.28;;;2.08;;
59054;SDS011;44845;51.444;7.460;2023-03-11T06:35:42;6.50;;;1.42;;
59054;SDS011;44845;51.444;7.460;2023-03-11T06:38:07;5.20;;;1.50;;
59054;SDS011;44845;51.444;7.460;2023-03-11T06:40:32;7.13;;;1.85;;
59054;SDS011;44845;51.444;7.460;2023-03-11T06:42:58;5.03;;;1.35;;
59054;SDS011;44845;51.444;7.460;2023-03-11T06:45:23;5.78;;;1.50;;
59054;SDS011;44845;51.444;7.460;2023-03-11T06:47:49;5.63;;;1.70;;
59054;SDS011;44845;51.444;7.460;2023-03-11T06:50:14;4.72;;;1.52;;
59054;SDS011;44845;51.444;7.460;2023-03-11T06:52:40;4.20;;;1.10;;
59054;SDS011;44845;51.444;7.460;2023-03-11T06:55:05;9.55;;;1.35;;
59054;SDS011;44845;51.444;7.460;2023-03-11T06:57:31;4.80;;;1.02;;
59054;SDS011;44845;51.444;7.460;2023-03-11T06:59:57;4.65;;;1.20;;
59054;SDS011;44845;51.444;7.460;2023-03-11T07:02:22;8.60;;;1.08;;
59054;SDS011;44845;51.444;7.460;2023-03-11T07:04:48;4.40;;;1.20;;
59054;SDS011;44845;51.444;7.460;2023-03-11T07:07:13;5.72;;;1.17;;
59054;SDS011;44845;51.444;7.460;2023-03-11T07:09:39;3.88;;;1.33;;
59054;SDS011;44845;51.444;7.460;2023-03-11T07:12:04;9.45;;;1.30;;
59054;SDS011;44845;51.444;7.460;2023-03-11T07:14:30;4.10;;;1.40;;
59054;SDS011;44845;51.444;7.460;2023-03-11T07:16:55;8.77;;;1.65;;
59054;SDS011;44845;51.444;7.460;2023-03-11T07:19:20;4.75;;;1.27;;
59054;SDS011;44845;51.444;7.460;2023-03-11T07:21:46;5.82;;;1.42;;
59054;SDS011;44845;51.444;7.460;2023-03-11T07:24:12;2.05;;;0.75;;
59054;SDS011;44845;51.444;7.460;2023-03-11T07:26:38;1.73;;;1.30;;
59054;SDS011;44845;51.444;7.460;2023-03-11T07:29:04;4.72;;;1.30;;
59054;SDS011;44845;51.444;7.460;2023-03-11T07:31:30;3.65;;;1.15;;
59054;SDS011;44845;51.444;7.460;2023-03-11T07:33:58;2.38;;;1.00;;
59054;SDS011;44845;51.444;7.460;2023-03-11T07:36:26;4.28;;;1.38;;
59054;SDS011;44845;51.444;7.460;2023-03-11T07:38:59;4.13;;;1.45;;
59054;SDS011;44845;51.444;7.460;2023-03-11T07:41:28;8.00;;;2.10;;
59054;SDS011;44845;51.444;7.460;2023-03-11T07:43:56;5.90;;;1.52;;
59054;SDS011;44845;51.444;7.460;2023-03-11T07:46:23;4.75;;;1.75;;
59054;SDS011;44845;51.444;7.460;2023-03-11T07:48:49;5.90;;;1.45;;
59054;SDS011;44845;51.444;7.460;2023-03-11T07:51:25;6.18;;;1.65;;
59054;SDS011;44845;51.444;7.460;2023-03-11T07:53:53;4.65;;;1.27;;
59054;SDS011;44845;51.444;7.460;2023-03-11T07:56:20;6.47;;;1.50;;
59054;SDS011;44845;51.444;7.460;2023-03-11T07:58:47;5.60;;;1.48;;
59054;SDS011;44845;51.444;7.460;2023-03-11T08:01:17;6.78;;;1.35;;
59054;SDS011;44845;51.444;7.460;2023-03-11T08:03:44;7.75;;;1.30;;
59054;SDS011;44845;51.444;7.460;2023-03-11T08:06:11;3.88;;;1.27;;
59054;SDS011;44845;51.444;7.460;2023-03-11T08:08:38;5.25;;;1.60;;
59054;SDS011;44845;51.444;7.460;2023-03-11T08:11:03;5.28;;;1.30;;
59054;SDS011;44845;51.444;7.460;2023-03-11T08:13:29;3.55;;;1.55;;
59054;SDS011;44845;51.444;7.460;2023-03-11T08:15:54;5.97;;;1.10;;
59054;SDS011;44845;51.444;7.460;2023-03-11T08:18:19;2.85;;;1.35;;
59054;SDS011;44845;51.444;7.460;2023-03-11T08:20:45;7.47;;;2.13;;
59054;SDS011;44845;51.444;7.460;2023-03-11T08:23:10;3.60;;;1.10;;
59054;SDS011;44845;51.444;7.460;2023-03-11T08:25:39;6.00;;;1.80;;
59054;SDS011;44845;51.444;7.460;2023-03-11T08:28:05;7.47;;;1.65;;
59054;SDS011;44845;51.444;7.460;2023-03-11T08:30:32;7.00;;;1.45;;
59054;SDS011;44845;51.444;7.460;2023-03-11T08:32:58;6.95;;;1.45;;
59054;SDS011;44845;51.444;7.460;2023-03-11T08:35:23;4.65;;;0.90;;
59054;SDS011;44845;51.444;7.460;2023-03-11T08:37:50;5.82;;;1.63;;
59054;SDS011;44845;51.444;7.460;2023-03-11T08:40:16;8.52;;;1.88;;
59054;SDS011;44845;51.444;7.460;2023-03-11T08:42:41;2.53;;;1.17;;
59054;SDS011;44845;51.444;7.460;2023-03-11T08:45:07;3.50;;;1.23;;
59054;SDS011;44845;51.444;7.460;2023-03-11T08:47:34;6.05;;;1.42;;
59054;SDS011;44845;51.444;7.460;2023-03-11T08:50:00;6.60;;;1.42;;
59054;SDS011;44845;51.444;7.460;2023-03-11T08:52:25;4.63;;;1.50;;
59054;SDS011;44845;51.444;7.460;2023-03-11T08:54:51;10.55;;;1.20;;
59054;SDS011;44845;51.444;7.460;2023-03-11T08:57:16;5.78;;;1.23;;
59054;SDS011;44845;51.444;7.460;2023-03-11T08:59:41;5.15;;;1.55;;
59054;SDS011;44845;51.444;7.460;2023-03-11T09:02:08;9.82;;;1.55;;
59054;SDS011;44845;51.444;7.460;2023-03-11T09:04:34;5.20;;;1.23;;
59054;SDS011;44845;51.444;7.460;2023-03-11T09:07:00;7.78;;;1.83;;
59054;SDS011;44845;51.444;7.460;2023-03-11T09:09:25;2.85;;;0.88;;
59054;SDS011;44845;51.444;7.460;2023-03-11T09:11:50;9.73;;;1.08;;
59054;SDS011;44845;51.444;7.460;2023-03-11T09:14:16;4.00;;;0.77;;
59054;SDS011;44845;51.444;7.460;2023-03-11T09:16:41;2.45;;;1.05;;
59054;SDS011;44845;51.444;7.460;2023-03-11T09:19:06;2.70;;;0.90;;
59054;SDS011;44845;51.444;7.460;2023-03-11T09:21:36;5.90;;;1.25;;
59054;SDS011;44845;51.444;7.460;2023-03-11T09:24:01;5.43;;;1.25;;
59054;SDS011;44845;51.444;7.460;2023-03-11T09:26:28;8.68;;;1.50;;
59054;SDS011;44845;51.444;7.460;2023-03-11T09:28:54;5.07;;;1.13;;
59054;SDS011;44845;51.444;7.460;2023-03-11T09:31:20;1.92;;;0.68;;
59054;SDS011;44845;51.444;7.460;2023-03-11T09:33:45;2.60;;;0.68;;
59054;SDS011;44845;51.444;7.460;2023-03-11T09:36:12;2.95;;;0.60;;
59054;SDS011;44845;51.444;7.460;2023-03-11T09:38:39;4.85;;;0.77;;
59054;SDS011;44845;51.444;7.460;2023-03-11T09:51:50;3.45;;;0.70;;
59054;SDS011;44845;51.444;7.460;2023-03-11T09:54:22;1.08;;;0.50;;
59054;SDS011;44845;51.444;7.460;2023-03-11T09:56:47;3.90;;;0.70;;
59054;SDS011;44845;51.444;7.460;2023-03-11T09:59:14;2.55;;;0.50;;
59054;SDS011;44845;51.444;7.460;2023-03-11T10:01:47;4.45;;;0.68;;
59054;SDS011;44845;51.444;7.460;2023-03-11T10:06:46;3.05;;;0.60;;
59054;SDS011;44845;51.444;7.460;2023-03-11T10:11:49;6.50;;;0.90;;
59054;SDS011;44845;51.444;7.460;2023-03-11T10:17:21;2.47;;;0.45;;
59054;SDS011;44845;51.444;7.460;2023-03-11T10:25:21;4.75;;;0.50;;
59054;SDS011;44845;51.444;7.460;2023-03-11T10:27:57;5.35;;;0.70;;
59054;SDS011;44845;51.444;7.460;2023-03-11T10:30:37;10.35;;;0.73;;
59054;SDS011;44845;51.444;7.460;2023-03-11T10:33:13;5.53;;;0.65;;
59054;SDS011;44845;51.444;7.460;2023-03-11T10:35:42;1.92;;;0.30;;
59054;SDS011;44845;51.444;7.460;2023-03-11T10:38:17;3.67;;;0.40;;
59054;SDS011;44845;51.444;7.460;2023-03-11T10:40:57;1.15;;;0.40;;
59054;SDS011;44845;51.444;7.460;2023-03-11T10:43:28;3.83;;;0.40;;
59054;SDS011;44845;51.444;7.460;2023-03-11T10:45:58;7.40;;;0.90;;
59054;SDS011;44845;51.444;7.460;2023-03-11T10:48:27;3.03;;;0.63;;
59054;SDS011;44845;51.444;7.460;2023-03-11T10:53:49;3.30;;;0.40;;
59054;SDS011;44845;51.444;7.460;2023-03-11T10:56:37;1.85;;;0.63;;
59054;SDS011;44845;51.444;7.460;2023-03-11T10:59:09;2.53;;;0.60;;
59054;SDS011;44845;51.444;7.460;2023-03-11T11:01:55;7.38;;;1.25;;
59054;SDS011;44845;51.444;7.460;2023-03-11T11:04:34;1.98;;;0.50;;
59054;SDS011;44845;51.444;7.460;2023-03-11T11:10:11;6.45;;;0.57;;
59054;SDS011;44845;51.444;7.460;2023-03-11T11:12:37;4.90;;;0.55;;
59054;SDS011;44845;51.444;7.460;2023-03-11T11:17:59;2.75;;;0.60;;
59054;SDS011;44845;51.444;7.460;2023-03-11T11:20:27;3.20;;;0.50;;
59054;SDS011;44845;51.444;7.460;2023-03-11T11:22:55;4.78;;;0.50;;
59054;SDS011;44845;51.444;7.460;2023-03-11T11:25:26;2.28;;;0.65;;
59054;SDS011;44845;51.444;7.460;2023-03-11T11:28:31;1.10;;;0.55;;
59054;SDS011;44845;51.444;7.460;2023-03-11T11:33:28;3.00;;;0.40;;
59054;SDS011;44845;51.444;7.460;2023-03-11T11:35:56;2.78;;;0.60;;
59054;SDS011;44845;51.444;7.460;2023-03-11T11:38:25;3.63;;;0.73;;
59054;SDS011;44845;51.444;7.460;2023-03-11T11:40:52;1.77;;;0.60;;
59054;SDS011;44845;51.444;7.460;2023-03-11T11:46:27;3.53;;;0.45;;
59054;SDS011;44845;51.444;7.460;2023-03-11T11:49:15;4.40;;;0.40;;
59054;SDS011;44845;51.444;7.460;2023-03-11T11:54:43;2.17;;;0.30;;
59054;SDS011;44845;51.444;7.460;2023-03-11T11:57:15;2.88;;;0.50;;
59054;SDS011;44845;51.444;7.460;2023-03-11T11:59:43;3.38;;;0.45;;
59054;SDS011;44845;51.444;7.460;2023-03-11T12:07:28;2.15;;;0.40;;
59054;SDS011;44845;51.444;7.460;2023-03-11T12:12:48;1.92;;;0.32;;
59054;SDS011;44845;51.444;7.460;2023-03-11T12:15:32;1.95;;;0.45;;
59054;SDS011;44845;51.444;7.460;2023-03-11T12:18:05;0.73;;;0.28;;
59054;SDS011;44845;51.444;7.460;2023-03-11T12:20:45;3.08;;;0.60;;
59054;SDS011;44845;51.444;7.460;2023-03-11T12:23:17;1.70;;;0.47;;
59054;SDS011;44845;51.444;7.460;2023-03-11T12:31:13;3.55;;;0.57;;
59054;SDS011;44845;51.444;7.460;2023-03-11T12:33:42;3.10;;;0.52;;
59054;SDS011;44845;51.444;7.460;2023-03-11T12:38:47;3.47;;;0.52;;
59054;SDS011;44845;51.444;7.460;2023-03-11T12:46:04;1.67;;;0.35;;
59054;SDS011;44845;51.444;7.460;2023-03-11T12:48:31;0.77;;;0.40;;
59054;SDS011;44845;51.444;7.460;2023-03-11T12:50:57;1.92;;;0.60;;
59054;SDS011;44845;51.444;7.460;2023-03-11T12:53:43;3.10;;;0.65;;
59054;SDS011;44845;51.444;7.460;2023-03-11T12:56:20;2.85;;;0.50;;
59054;SDS011;44845;51.444;7.460;2023-03-11T13:10:04;5.70;;;0.70;;
59054;SDS011;44845;51.444;7.460;2023-03-11T13:12:47;3.42;;;0.50;;
59054;SDS011;44845;51.444;7.460;2023-03-11T13:25:38;1.33;;;0.52;;
59054;SDS011;44845;51.444;7.460;2023-03-11T13:31:07;3.17;;;0.57;;
59054;SDS011;44845;51.444;7.460;2023-03-11T13:33:44;4.20;;;0.68;;
59054;SDS011;44845;51.444;7.460;2023-03-11T13:39:21;3.35;;;0.77;;
59054;SDS011;44845;51.444;7.460;2023-03-11T13:41:48;2.10;;;0.70;;
59054;SDS011;44845;51.444;7.460;2023-03-11T13:44:19;3.78;;;0.90;;
59054;SDS011;44845;51.444;7.460;2023-03-11T13:47:04;1.55;;;1.13;;
59054;SDS011;44845;51.444;7.460;2023-03-11T13:52:31;6.25;;;1.25;;
59054;SDS011;44845;51.444;7.460;2023-03-11T13:55:17;3.72;;;1.33;;
59054;SDS011;44845;51.444;7.460;2023-03-11T13:57:48;4.00;;;1.00;;
59054;SDS011;44845;51.444;7.460;2023-03-11T14:00:19;3.95;;;0.90;;
59054;SDS011;44845;51.444;7.460;2023-03-11T14:02:50;5.22;;;1.00;;
59054;SDS011;44845;51.444;7.460;2023-03-11T14:05:25;3.30;;;0.82;;
59054;SDS011;44845;51.444;7.460;2023-03-11T14:08:09;2.20;;;0.98;;
59054;SDS011;44845;51.444;7.460;2023-03-11T14:10:56;3.15;;;1.00;;
59054;SDS011;44845;51.444;7.460;2023-03-11T14:13:27;0.90;;;0.60;;
59054;SDS011;44845;51.444;7.460;2023-03-11T14:18:39;4.00;;;0.80;;
59054;SDS011;44845;51.444;7.460;2023-03-11T14:21:24;1.92;;;1.00;;
59054;SDS011;44845;51.444;7.460;2023-03-11T14:23:51;1.67;;;1.10;;
59054;SDS011;44845;51.444;7.460;2023-03-11T14:26:28;2.33;;;0.95;;
59054;SDS011;44845;51.444;7.460;2023-03-11T14:28:57;6.63;;;1.20;;
59054;SDS011;44845;51.444;7.460;2023-03-11T14:31:29;6.18;;;0.82;;
59054;SDS011;44845;51.444;7.460;2023-03-11T14:34:00;2.95;;;0.75;;
59054;SDS011;44845;51.444;7.460;2023-03-11T14:36:48;2.30;;;0.98;;
59054;SDS011;44845;51.444;7.460;2023-03-11T14:39:37;3.65;;;0.98;;
59054;SDS011;44845;51.444;7.460;2023-03-11T14:44:37;1.88;;;0.80;;
59054;SDS011;44845;51.444;7.460;2023-03-11T14:47:31;2.80;;;0.60;;
59054;SDS011;44845;51.444;7.460;2023-03-11T14:49:57;4.57;;;1.08;;
59054;SDS011;44845;51.444;7.460;2023-03-11T14:52:31;3.72;;;0.88;;
59054;SDS011;44845;51.444;7.460;2023-03-11T14:55:01;3.22;;;0.82;;
59054;SDS011;44845;51.444;7.460;2023-03-11T14:57:37;4.40;;;0.93;;
59054;SDS011;44845;51.444;7.460;2023-03-11T15:00:10;1.88;;;0.80;;
59054;SDS011;44845;51.444;7.460;2023-03-11T15:02:51;3.75;;;0.90;;
59054;SDS011;44845;51.444;7.460;2023-03-11T15:05:40;3.50;;;0.90;;
59054;SDS011;44845;51.444;7.460;2023-03-11T15:08:09;4.30;;;0.77;;
59054;SDS011;44845;51.444;7.460;2023-03-11T15:10:35;1.50;;;0.95;;
59054;SDS011;44845;51.444;7.460;2023-03-11T15:13:08;4.40;;;0.80;;
59054;SDS011;44845;51.444;7.460;2023-03-11T15:15:39;3.15;;;0.85;;
59054;SDS011;44845;51.444;7.460;2023-03-11T15:18:18;4.40;;;1.00;;
59054;SDS011;44845;51.444;7.460;2023-03-11T15:20:46;2.13;;;0.90;;
59054;SDS011;44845;51.444;7.460;2023-03-11T15:23:25;2.95;;;0.90;;
59054;SDS011;44845;51.444;7.460;2023-03-11T15:25:51;3.03;;;1.10;;
59054;SDS011;44845;51.444;7.460;2023-03-11T15:28:23;3.08;;;0.80;;
59054;SDS011;44845;51.444;7.460;2023-03-11T15:31:34;3.00;;;1.05;;
59054;SDS011;44845;51.444;7.460;2023-03-11T15:33:46;4.18;;;0.77;;
59054;SDS011;44845;51.444;7.460;2023-03-11T15:36:32;1.58;;;0.82;;
59054;SDS011;44845;51.444;7.460;2023-03-11T15:42:00;3.22;;;0.43;;
59054;SDS011;44845;51.444;7.460;2023-03-11T15:44:39;1.60;;;0.60;;
59054;SDS011;44845;51.444;7.460;2023-03-11T15:47:15;1.85;;;0.68;;
59054;SDS011;44845;51.444;7.460;2023-03-11T15:49:42;1.98;;;0.52;;
59054;SDS011;44845;51.444;7.460;2023-03-11T15:52:08;2.20;;;0.73;;
59054;SDS011;44845;51.444;7.460;2023-03-11T15:54:34;0.90;;;0.70;;
59054;SDS011;44845;51.444;7.460;2023-03-11T15:57:00;2.90;;;0.85;;
59054;SDS011;44845;51.444;7.460;2023-03-11T15:59:28;1.40;;;0.47;;
59054;SDS011;44845;51.444;7.460;2023-03-11T16:01:54;1.35;;;0.70;;
59054;SDS011;44845;51.444;7.460;2023-03-11T16:04:20;1.45;;;0.63;;
59054;SDS011;44845;51.444;7.460;2023-03-11T16:06:46;3.13;;;0.63;;
59054;SDS011;44845;51.444;7.460;2023-03-11T16:09:13;3.75;;;1.00;;
59054;SDS011;44845;51.444;7.460;2023-03-11T16:11:40;3.88;;;0.82;;
59054;SDS011;44845;51.444;7.460;2023-03-11T16:14:08;3.13;;;0.70;;
59054;SDS011;44845;51.444;7.460;2023-03-11T16:16:38;1.00;;;0.63;;
59054;SDS011;44845;51.444;7.460;2023-03-11T16:19:04;3.28;;;0.75;;
59054;SDS011;44845;51.444;7.460;2023-03-11T16:21:33;1.85;;;1.02;;
59054;SDS011;44845;51.444;7.460;2023-03-11T16:24:15;1.70;;;1.13;;
59054;SDS011;44845;51.444;7.460;2023-03-11T16:26:44;1.63;;;0.95;;
59054;SDS011;44845;51.444;7.460;2023-03-11T16:29:10;2.40;;;1.20;;
59054;SDS011;44845;51.444;7.460;2023-03-11T16:31:36;4.22;;;0.80;;
59054;SDS011;44845;51.444;7.460;2023-03-11T16:34:01;2.38;;;0.80;;
59054;SDS011;44845;51.444;7.460;2023-03-11T16:36:27;2.25;;;1.00;;
59054;SDS011;44845;51.444;7.460;2023-03-11T16:38:52;2.55;;;1.08;;
59054;SDS011;44845;51.444;7.460;2023-03-11T16:41:17;2.17;;;0.90;;
59054;SDS011;44845;51.444;7.460;2023-03-11T16:43:43;3.22;;;0.93;;
59054;SDS011;44845;51.444;7.460;2023-03-11T16:46:08;2.63;;;1.02;;
59054;SDS011;44845;51.444;7.460;2023-03-11T16:48:34;6.63;;;1.20;;